sensor_id;sensor_type;location;lat;lon;timestamp;P1;durP1;ratioP1;P2;durP2;ratioP2
62880;SDS011;48969;49.934;8.596;2023-04-06T00:01:28;2.97;;;2.30;;
62880;SDS011;48969;49.934;8.596;2023-04-06T00:03:53;1.98;;;1.83;;
62880;SDS011;48969;49.934;8.596;2023-04-06T00:06:18;2.62;;;2.14;;
62880;SDS011;48969;49.934;8.596;2023-04-06T00:08:43;4.80;;;2.60;;
62880;SDS011;48969;49.934;8.596;2023-04-06T00:11:09;4.10;;;1.98;;
62880;SDS011;48969;49.934;8.596;2023-04-06T00:13:34;4.18;;;2.00;;
62880;SDS011;48969;49.934;8.596;2023-04-06T00:16:00;4.72;;;2.15;;
62880;SDS011;48969;49.934;8.596;2023-04-06T00:18:25;3.75;;;2.20;;
62880;SDS011;48969;49.934;8.596;2023-04-06T00:20:51;2.58;;;2.38;;
62880;SDS011;48969;49.934;8.596;2023-04-06T00:23:16;2.32;;;1.36;;
62880;SDS011;48969;49.934;8.596;2023-04-06T00:25:41;3.58;;;2.42;;
62880;SDS011;48969;49.934;8.596;2023-04-06T00:28:07;7.38;;;2.35;;
62880;SDS011;48969;49.934;8.596;2023-04-06T00:30:32;7.00;;;2.58;;
62880;SDS011;48969;49.934;8.596;2023-04-06T00:32:57;4.32;;;2.70;;
62880;SDS011;48969;49.934;8.596;2023-04-06T00:35:22;6.10;;;2.68;;
62880;SDS011;48969;49.934;8.596;2023-04-06T00:37:47;5.12;;;3.16;;
62880;SDS011;48969;49.934;8.596;2023-04-06T00:40:13;8.02;;;3.45;;
62880;SDS011;48969;49.934;8.596;2023-04-06T00:42:38;3.85;;;2.28;;
62880;SDS011;48969;49.934;8.596;2023-04-06T00:45:05;2.05;;;1.73;;
62880;SDS011;48969;49.934;8.596;2023-04-06T00:47:30;3.67;;;2.53;;
62880;SDS011;48969;49.934;8.596;2023-04-06T00:49:56;3.20;;;2.17;;
62880;SDS011;48969;49.934;8.596;2023-04-06T00:52:21;4.05;;;3.47;;
62880;SDS011;48969;49.934;8.596;2023-04-06T00:54:46;3.08;;;2.10;;
62880;SDS011;48969;49.934;8.596;2023-04-06T00:57:12;2.33;;;2.03;;
62880;SDS011;48969;49.934;8.596;2023-04-06T00:59:37;3.22;;;2.25;;
62880;SDS011;48969;49.934;8.596;2023-04-06T01:02:03;2.47;;;2.25;;
62880;SDS011;48969;49.934;8.596;2023-04-06T01:04:28;3.90;;;2.47;;
62880;SDS011;48969;49.934;8.596;2023-04-06T01:06:53;3.55;;;2.38;;
62880;SDS011;48969;49.934;8.596;2023-04-06T01:09:18;2.60;;;1.50;;
62880;SDS011;48969;49.934;8.596;2023-04-06T01:11:43;1.60;;;1.40;;
62880;SDS011;48969;49.934;8.596;2023-04-06T01:14:09;3.63;;;2.47;;
62880;SDS011;48969;49.934;8.596;2023-04-06T01:16:34;5.45;;;2.80;;
62880;SDS011;48969;49.934;8.596;2023-04-06T01:19:00;3.15;;;2.20;;
62880;SDS011;48969;49.934;8.596;2023-04-06T01:21:25;4.20;;;2.25;;
62880;SDS011;48969;49.934;8.596;2023-04-06T01:23:51;3.70;;;2.72;;
62880;SDS011;48969;49.934;8.596;2023-04-06T01:26:16;4.03;;;2.33;;
62880;SDS011;48969;49.934;8.596;2023-04-06T01:28:41;4.85;;;2.53;;
62880;SDS011;48969;49.934;8.596;2023-04-06T01:31:07;3.53;;;2.72;;
62880;SDS011;48969;49.934;8.596;2023-04-06T01:33:32;3.95;;;1.90;;
62880;SDS011;48969;49.934;8.596;2023-04-06T01:35:58;1.73;;;1.52;;
62880;SDS011;48969;49.934;8.596;2023-04-06T01:38:23;2.88;;;1.52;;
62880;SDS011;48969;49.934;8.596;2023-04-06T01:40:48;2.78;;;2.58;;
62880;SDS011;48969;49.934;8.596;2023-04-06T01:43:13;2.00;;;1.90;;
62880;SDS011;48969;49.934;8.596;2023-04-06T01:45:38;3.55;;;2.67;;
62880;SDS011;48969;49.934;8.596;2023-04-06T01:48:04;1.16;;;1.16;;
62880;SDS011;48969;49.934;8.596;2023-04-06T01:50:29;2.35;;;2.15;;
62880;SDS011;48969;49.934;8.596;2023-04-06T01:52:54;2.03;;;1.83;;
62880;SDS011;48969;49.934;8.596;2023-04-06T01:55:19;10.82;;;1.27;;
62880;SDS011;48969;49.934;8.596;2023-04-06T01:57:45;3.35;;;1.70;;
62880;SDS011;48969;49.934;8.596;2023-04-06T02:00:10;3.42;;;2.68;;
62880;SDS011;48969;49.934;8.596;2023-04-06T02:02:36;2.25;;;1.30;;
62880;SDS011;48969;49.934;8.596;2023-04-06T02:05:01;2.48;;;2.28;;
62880;SDS011;48969;49.934;8.596;2023-04-06T02:07:26;4.45;;;3.03;;
62880;SDS011;48969;49.934;8.596;2023-04-06T02:09:53;4.57;;;3.20;;
62880;SDS011;48969;49.934;8.596;2023-04-06T02:12:18;2.92;;;2.20;;
62880;SDS011;48969;49.934;8.596;2023-04-06T02:14:43;6.35;;;3.53;;
62880;SDS011;48969;49.934;8.596;2023-04-06T02:17:09;4.32;;;2.80;;
62880;SDS011;48969;49.934;8.596;2023-04-06T02:19:34;5.20;;;3.50;;
62880;SDS011;48969;49.934;8.596;2023-04-06T02:21:59;4.94;;;2.98;;
62880;SDS011;48969;49.934;8.596;2023-04-06T02:24:25;3.77;;;2.23;;
62880;SDS011;48969;49.934;8.596;2023-04-06T02:26:50;4.13;;;2.25;;
62880;SDS011;48969;49.934;8.596;2023-04-06T02:29:15;2.53;;;1.67;;
62880;SDS011;48969;49.934;8.596;2023-04-06T02:31:42;1.42;;;1.33;;
62880;SDS011;48969;49.934;8.596;2023-04-06T02:34:08;2.23;;;2.03;;
62880;SDS011;48969;49.934;8.596;2023-04-06T02:36:35;0.95;;;0.95;;
62880;SDS011;48969;49.934;8.596;2023-04-06T02:39:01;3.04;;;2.08;;
62880;SDS011;48969;49.934;8.596;2023-04-06T02:41:26;2.16;;;1.98;;
62880;SDS011;48969;49.934;8.596;2023-04-06T02:43:51;2.03;;;1.35;;
62880;SDS011;48969;49.934;8.596;2023-04-06T02:46:16;2.44;;;1.70;;
62880;SDS011;48969;49.934;8.596;2023-04-06T02:48:41;2.54;;;2.12;;
62880;SDS011;48969;49.934;8.596;2023-04-06T02:51:07;1.67;;;1.58;;
62880;SDS011;48969;49.934;8.596;2023-04-06T02:53:32;1.27;;;1.17;;
62880;SDS011;48969;49.934;8.596;2023-04-06T02:55:57;1.98;;;1.62;;
62880;SDS011;48969;49.934;8.596;2023-04-06T02:58:22;3.26;;;2.12;;
62880;SDS011;48969;49.934;8.596;2023-04-06T03:00:47;3.25;;;2.20;;
62880;SDS011;48969;49.934;8.596;2023-04-06T03:03:12;4.78;;;2.74;;
62880;SDS011;48969;49.934;8.596;2023-04-06T03:05:38;4.50;;;2.92;;
62880;SDS011;48969;49.934;8.596;2023-04-06T03:08:03;3.84;;;2.50;;
62880;SDS011;48969;49.934;8.596;2023-04-06T03:10:28;5.70;;;2.88;;
62880;SDS011;48969;49.934;8.596;2023-04-06T03:12:53;2.66;;;1.80;;
62880;SDS011;48969;49.934;8.596;2023-04-06T03:15:18;2.42;;;2.10;;
62880;SDS011;48969;49.934;8.596;2023-04-06T03:17:43;2.30;;;1.95;;
62880;SDS011;48969;49.934;8.596;2023-04-06T03:20:09;4.83;;;3.13;;
62880;SDS011;48969;49.934;8.596;2023-04-06T03:22:34;4.60;;;2.73;;
62880;SDS011;48969;49.934;8.596;2023-04-06T03:24:59;3.00;;;2.52;;
62880;SDS011;48969;49.934;8.596;2023-04-06T03:27:24;6.60;;;3.37;;
62880;SDS011;48969;49.934;8.596;2023-04-06T03:29:49;5.60;;;3.30;;
62880;SDS011;48969;49.934;8.596;2023-04-06T03:32:15;3.10;;;2.53;;
62880;SDS011;48969;49.934;8.596;2023-04-06T03:34:40;4.43;;;2.65;;
62880;SDS011;48969;49.934;8.596;2023-04-06T03:37:05;5.57;;;3.03;;
62880;SDS011;48969;49.934;8.596;2023-04-06T03:39:30;5.93;;;3.75;;
62880;SDS011;48969;49.934;8.596;2023-04-06T03:41:55;3.57;;;2.50;;
62880;SDS011;48969;49.934;8.596;2023-04-06T03:44:21;3.77;;;2.87;;
62880;SDS011;48969;49.934;8.596;2023-04-06T03:46:46;1.95;;;1.80;;
62880;SDS011;48969;49.934;8.596;2023-04-06T03:49:11;4.93;;;2.20;;
62880;SDS011;48969;49.934;8.596;2023-04-06T03:51:36;2.43;;;2.23;;
62880;SDS011;48969;49.934;8.596;2023-04-06T03:54:01;6.07;;;3.22;;
62880;SDS011;48969;49.934;8.596;2023-04-06T03:56:26;5.30;;;2.85;;
62880;SDS011;48969;49.934;8.596;2023-04-06T03:58:52;6.17;;;2.87;;
62880;SDS011;48969;49.934;8.596;2023-04-06T04:01:17;2.43;;;2.23;;
62880;SDS011;48969;49.934;8.596;2023-04-06T04:03:43;2.17;;;1.97;;
62880;SDS011;48969;49.934;8.596;2023-04-06T04:06:08;2.60;;;1.83;;
62880;SDS011;48969;49.934;8.596;2023-04-06T04:08:33;5.32;;;2.45;;
62880;SDS011;48969;49.934;8.596;2023-04-06T04:10:58;2.73;;;2.50;;
62880;SDS011;48969;49.934;8.596;2023-04-06T04:13:23;4.43;;;2.57;;
62880;SDS011;48969;49.934;8.596;2023-04-06T04:15:49;3.53;;;1.83;;
62880;SDS011;48969;49.934;8.596;2023-04-06T04:18:14;2.33;;;2.13;;
62880;SDS011;48969;49.934;8.596;2023-04-06T04:20:39;3.73;;;1.77;;
62880;SDS011;48969;49.934;8.596;2023-04-06T04:23:04;4.20;;;2.78;;
62880;SDS011;48969;49.934;8.596;2023-04-06T04:25:30;5.60;;;3.87;;
62880;SDS011;48969;49.934;8.596;2023-04-06T04:27:55;2.85;;;2.08;;
62880;SDS011;48969;49.934;8.596;2023-04-06T04:30:20;2.87;;;2.63;;
62880;SDS011;48969;49.934;8.596;2023-04-06T04:32:45;2.60;;;2.27;;
62880;SDS011;48969;49.934;8.596;2023-04-06T04:35:10;7.60;;;2.40;;
62880;SDS011;48969;49.934;8.596;2023-04-06T04:37:36;6.77;;;3.00;;
62880;SDS011;48969;49.934;8.596;2023-04-06T04:40:01;8.23;;;2.83;;
62880;SDS011;48969;49.934;8.596;2023-04-06T04:42:26;10.30;;;3.73;;
62880;SDS011;48969;49.934;8.596;2023-04-06T04:44:51;5.47;;;3.10;;
62880;SDS011;48969;49.934;8.596;2023-04-06T04:47:17;5.37;;;3.00;;
62880;SDS011;48969;49.934;8.596;2023-04-06T04:49:42;5.25;;;2.72;;
62880;SDS011;48969;49.934;8.596;2023-04-06T04:52:07;3.20;;;2.23;;
62880;SDS011;48969;49.934;8.596;2023-04-06T04:54:32;8.23;;;2.57;;
62880;SDS011;48969;49.934;8.596;2023-04-06T04:56:57;9.00;;;4.38;;
62880;SDS011;48969;49.934;8.596;2023-04-06T04:59:22;2.38;;;1.78;;
62880;SDS011;48969;49.934;8.596;2023-04-06T05:01:47;3.17;;;2.87;;
62880;SDS011;48969;49.934;8.596;2023-04-06T05:04:13;2.53;;;2.00;;
62880;SDS011;48969;49.934;8.596;2023-04-06T05:06:38;2.83;;;2.37;;
62880;SDS011;48969;49.934;8.596;2023-04-06T05:09:03;2.78;;;2.22;;
62880;SDS011;48969;49.934;8.596;2023-04-06T05:11:28;2.65;;;2.45;;
62880;SDS011;48969;49.934;8.596;2023-04-06T05:13:53;2.67;;;2.38;;
62880;SDS011;48969;49.934;8.596;2023-04-06T05:16:19;2.55;;;2.35;;
62880;SDS011;48969;49.934;8.596;2023-04-06T05:18:44;4.18;;;2.98;;
62880;SDS011;48969;49.934;8.596;2023-04-06T05:21:10;7.78;;;3.28;;
62880;SDS011;48969;49.934;8.596;2023-04-06T05:23:35;4.40;;;3.10;;
62880;SDS011;48969;49.934;8.596;2023-04-06T05:26:00;4.85;;;3.28;;
62880;SDS011;48969;49.934;8.596;2023-04-06T05:28:25;3.57;;;2.10;;
62880;SDS011;48969;49.934;8.596;2023-04-06T05:30:51;5.20;;;3.07;;
62880;SDS011;48969;49.934;8.596;2023-04-06T05:33:16;6.27;;;3.80;;
62880;SDS011;48969;49.934;8.596;2023-04-06T05:35:41;5.17;;;3.23;;
62880;SDS011;48969;49.934;8.596;2023-04-06T05:38:09;4.80;;;2.08;;
62880;SDS011;48969;49.934;8.596;2023-04-06T05:40:35;6.33;;;3.53;;
62880;SDS011;48969;49.934;8.596;2023-04-06T05:43:00;6.40;;;2.30;;
62880;SDS011;48969;49.934;8.596;2023-04-06T05:45:25;7.73;;;2.17;;
62880;SDS011;48969;49.934;8.596;2023-04-06T05:47:51;10.14;;;3.40;;
62880;SDS011;48969;49.934;8.596;2023-04-06T05:50:16;5.75;;;2.67;;
62880;SDS011;48969;49.934;8.596;2023-04-06T05:52:41;2.10;;;1.90;;
62880;SDS011;48969;49.934;8.596;2023-04-06T05:55:08;1.57;;;1.47;;
62880;SDS011;48969;49.934;8.596;2023-04-06T05:57:34;2.80;;;2.10;;
62880;SDS011;48969;49.934;8.596;2023-04-06T05:59:59;3.17;;;2.00;;
62880;SDS011;48969;49.934;8.596;2023-04-06T06:02:24;6.35;;;3.08;;
62880;SDS011;48969;49.934;8.596;2023-04-06T06:04:49;4.60;;;2.80;;
62880;SDS011;48969;49.934;8.596;2023-04-06T06:07:14;15.87;;;4.47;;
62880;SDS011;48969;49.934;8.596;2023-04-06T06:09:40;5.55;;;3.50;;
62880;SDS011;48969;49.934;8.596;2023-04-06T06:12:05;5.35;;;3.88;;
62880;SDS011;48969;49.934;8.596;2023-04-06T06:14:30;5.37;;;3.57;;
62880;SDS011;48969;49.934;8.596;2023-04-06T06:16:56;5.10;;;2.97;;
62880;SDS011;48969;49.934;8.596;2023-04-06T06:19:21;16.10;;;4.27;;
62880;SDS011;48969;49.934;8.596;2023-04-06T06:21:46;8.43;;;3.70;;
62880;SDS011;48969;49.934;8.596;2023-04-06T06:24:11;7.34;;;4.46;;
62880;SDS011;48969;49.934;8.596;2023-04-06T06:26:36;8.68;;;5.22;;
62880;SDS011;48969;49.934;8.596;2023-04-06T06:29:03;7.93;;;5.50;;
62880;SDS011;48969;49.934;8.596;2023-04-06T06:31:30;9.10;;;5.28;;
62880;SDS011;48969;49.934;8.596;2023-04-06T06:33:55;4.90;;;3.65;;
62880;SDS011;48969;49.934;8.596;2023-04-06T06:36:20;5.95;;;4.60;;
62880;SDS011;48969;49.934;8.596;2023-04-06T06:38:45;9.34;;;4.24;;
62880;SDS011;48969;49.934;8.596;2023-04-06T06:41:11;7.47;;;4.13;;
62880;SDS011;48969;49.934;8.596;2023-04-06T06:43:36;7.38;;;4.65;;
62880;SDS011;48969;49.934;8.596;2023-04-06T06:46:01;11.30;;;5.82;;
62880;SDS011;48969;49.934;8.596;2023-04-06T06:48:27;6.95;;;3.53;;
62880;SDS011;48969;49.934;8.596;2023-04-06T06:50:52;9.40;;;4.90;;
62880;SDS011;48969;49.934;8.596;2023-04-06T06:53:17;12.90;;;6.28;;
62880;SDS011;48969;49.934;8.596;2023-04-06T06:55:42;5.50;;;4.40;;
62880;SDS011;48969;49.934;8.596;2023-04-06T06:58:09;7.95;;;3.85;;
62880;SDS011;48969;49.934;8.596;2023-04-06T07:00:34;6.80;;;4.40;;
62880;SDS011;48969;49.934;8.596;2023-04-06T07:03:00;7.35;;;4.78;;
62880;SDS011;48969;49.934;8.596;2023-04-06T07:05:25;6.28;;;4.90;;
62880;SDS011;48969;49.934;8.596;2023-04-06T07:07:50;5.32;;;4.00;;
62880;SDS011;48969;49.934;8.596;2023-04-06T07:10:16;5.62;;;4.46;;
62880;SDS011;48969;49.934;8.596;2023-04-06T07:12:41;9.15;;;5.93;;
62880;SDS011;48969;49.934;8.596;2023-04-06T07:15:06;7.18;;;5.47;;
62880;SDS011;48969;49.934;8.596;2023-04-06T07:17:31;12.82;;;5.13;;
62880;SDS011;48969;49.934;8.596;2023-04-06T07:19:57;5.22;;;4.45;;
62880;SDS011;48969;49.934;8.596;2023-04-06T07:22:22;8.82;;;5.93;;
62880;SDS011;48969;49.934;8.596;2023-04-06T07:24:47;16.70;;;14.93;;
62880;SDS011;48969;49.934;8.596;2023-04-06T07:27:12;9.23;;;6.70;;
62880;SDS011;48969;49.934;8.596;2023-04-06T07:29:37;7.20;;;4.03;;
62880;SDS011;48969;49.934;8.596;2023-04-06T07:32:03;16.85;;;15.15;;
62880;SDS011;48969;49.934;8.596;2023-04-06T07:34:28;6.80;;;4.63;;
62880;SDS011;48969;49.934;8.596;2023-04-06T07:36:53;6.30;;;4.94;;
62880;SDS011;48969;49.934;8.596;2023-04-06T07:39:19;9.85;;;5.95;;
62880;SDS011;48969;49.934;8.596;2023-04-06T07:41:44;10.23;;;6.63;;
62880;SDS011;48969;49.934;8.596;2023-04-06T07:44:09;16.65;;;14.95;;
62880;SDS011;48969;49.934;8.596;2023-04-06T07:46:34;9.93;;;7.22;;
62880;SDS011;48969;49.934;8.596;2023-04-06T07:49:00;6.00;;;4.63;;
62880;SDS011;48969;49.934;8.596;2023-04-06T07:51:26;5.90;;;5.05;;
62880;SDS011;48969;49.934;8.596;2023-04-06T07:53:51;10.60;;;7.50;;
62880;SDS011;48969;49.934;8.596;2023-04-06T07:56:16;5.97;;;5.03;;
62880;SDS011;48969;49.934;8.596;2023-04-06T07:58:42;16.02;;;14.32;;
62880;SDS011;48969;49.934;8.596;2023-04-06T08:01:07;16.48;;;14.75;;
62880;SDS011;48969;49.934;8.596;2023-04-06T08:03:35;16.20;;;14.60;;
62880;SDS011;48969;49.934;8.596;2023-04-06T08:06:01;18.77;;;16.85;;
62880;SDS011;48969;49.934;8.596;2023-04-06T08:08:26;9.93;;;6.38;;
62880;SDS011;48969;49.934;8.596;2023-04-06T08:10:51;16.55;;;14.88;;
62880;SDS011;48969;49.934;8.596;2023-04-06T08:13:16;9.10;;;7.40;;
62880;SDS011;48969;49.934;8.596;2023-04-06T08:15:42;15.77;;;14.25;;
62880;SDS011;48969;49.934;8.596;2023-04-06T08:18:08;16.13;;;14.55;;
62880;SDS011;48969;49.934;8.596;2023-04-06T08:20:33;15.00;;;13.50;;
62880;SDS011;48969;49.934;8.596;2023-04-06T08:22:58;8.80;;;6.15;;
62880;SDS011;48969;49.934;8.596;2023-04-06T08:25:23;15.97;;;13.60;;
62880;SDS011;48969;49.934;8.596;2023-04-06T08:27:48;15.45;;;13.95;;
62880;SDS011;48969;49.934;8.596;2023-04-06T08:30:13;15.35;;;13.95;;
62880;SDS011;48969;49.934;8.596;2023-04-06T08:32:40;9.30;;;6.47;;
62880;SDS011;48969;49.934;8.596;2023-04-06T08:35:06;14.82;;;13.43;;
62880;SDS011;48969;49.934;8.596;2023-04-06T08:37:31;14.98;;;13.57;;
62880;SDS011;48969;49.934;8.596;2023-04-06T08:39:57;15.65;;;14.20;;
62880;SDS011;48969;49.934;8.596;2023-04-06T08:42:22;15.13;;;13.63;;
62880;SDS011;48969;49.934;8.596;2023-04-06T08:44:49;14.07;;;12.63;;
62880;SDS011;48969;49.934;8.596;2023-04-06T08:47:17;13.93;;;12.50;;
62880;SDS011;48969;49.934;8.596;2023-04-06T08:49:42;14.82;;;13.43;;
62880;SDS011;48969;49.934;8.596;2023-04-06T08:52:08;13.35;;;12.05;;
62880;SDS011;48969;49.934;8.596;2023-04-06T08:54:35;12.98;;;11.70;;
62880;SDS011;48969;49.934;8.596;2023-04-06T08:57:00;11.83;;;10.63;;
62880;SDS011;48969;49.934;8.596;2023-04-06T08:59:26;13.60;;;12.13;;
62880;SDS011;48969;49.934;8.596;2023-04-06T09:01:51;12.80;;;11.52;;
62880;SDS011;48969;49.934;8.596;2023-04-06T09:04:18;12.18;;;10.98;;
62880;SDS011;48969;49.934;8.596;2023-04-06T09:06:43;13.83;;;12.47;;
62880;SDS011;48969;49.934;8.596;2023-04-06T09:09:08;13.10;;;11.80;;
62880;SDS011;48969;49.934;8.596;2023-04-06T09:11:49;11.57;;;10.38;;
62880;SDS011;48969;49.934;8.596;2023-04-06T09:14:15;11.68;;;10.25;;
62880;SDS011;48969;49.934;8.596;2023-04-06T09:16:42;12.20;;;10.93;;
62880;SDS011;48969;49.934;8.596;2023-04-06T09:19:07;12.65;;;11.35;;
62880;SDS011;48969;49.934;8.596;2023-04-06T09:21:32;12.45;;;11.10;;
62880;SDS011;48969;49.934;8.596;2023-04-06T09:23:58;13.73;;;11.82;;
62880;SDS011;48969;49.934;8.596;2023-04-06T09:26:24;13.02;;;11.63;;
62880;SDS011;48969;49.934;8.596;2023-04-06T09:28:51;14.25;;;12.13;;
62880;SDS011;48969;49.934;8.596;2023-04-06T09:31:21;12.18;;;10.98;;
62880;SDS011;48969;49.934;8.596;2023-04-06T09:33:47;12.80;;;11.52;;
62880;SDS011;48969;49.934;8.596;2023-04-06T09:36:12;12.40;;;11.15;;
62880;SDS011;48969;49.934;8.596;2023-04-06T09:38:51;13.13;;;11.82;;
62880;SDS011;48969;49.934;8.596;2023-04-06T09:41:29;13.63;;;12.23;;
62880;SDS011;48969;49.934;8.596;2023-04-06T09:44:08;12.93;;;11.63;;
62880;SDS011;48969;49.934;8.596;2023-04-06T09:46:34;13.52;;;11.77;;
62880;SDS011;48969;49.934;8.596;2023-04-06T09:49:01;14.45;;;11.48;;
62880;SDS011;48969;49.934;8.596;2023-04-06T09:51:27;12.80;;;11.50;;
62880;SDS011;48969;49.934;8.596;2023-04-06T09:53:55;13.70;;;12.20;;
62880;SDS011;48969;49.934;8.596;2023-04-06T09:56:26;15.48;;;11.85;;
62880;SDS011;48969;49.934;8.596;2023-04-06T09:58:53;14.50;;;11.40;;
62880;SDS011;48969;49.934;8.596;2023-04-06T10:01:21;14.07;;;11.73;;
62880;SDS011;48969;49.934;8.596;2023-04-06T10:03:52;14.57;;;11.73;;
62880;SDS011;48969;49.934;8.596;2023-04-06T10:06:20;13.30;;;11.27;;
62880;SDS011;48969;49.934;8.596;2023-04-06T10:08:46;14.40;;;12.25;;
62880;SDS011;48969;49.934;8.596;2023-04-06T10:11:12;13.43;;;11.50;;
62880;SDS011;48969;49.934;8.596;2023-04-06T10:13:38;13.68;;;11.90;;
62880;SDS011;48969;49.934;8.596;2023-04-06T10:16:03;12.93;;;10.88;;
62880;SDS011;48969;49.934;8.596;2023-04-06T10:18:29;14.95;;;12.30;;
62880;SDS011;48969;49.934;8.596;2023-04-06T10:21:04;14.02;;;10.85;;
62880;SDS011;48969;49.934;8.596;2023-04-06T10:23:41;14.93;;;11.30;;
62880;SDS011;48969;49.934;8.596;2023-04-06T10:26:12;13.85;;;10.90;;
62880;SDS011;48969;49.934;8.596;2023-04-06T10:28:38;14.07;;;11.50;;
62880;SDS011;48969;49.934;8.596;2023-04-06T10:31:05;13.48;;;10.55;;
62880;SDS011;48969;49.934;8.596;2023-04-06T10:33:31;13.65;;;11.55;;
62880;SDS011;48969;49.934;8.596;2023-04-06T10:35:56;15.87;;;11.50;;
62880;SDS011;48969;49.934;8.596;2023-04-06T10:38:32;13.88;;;11.43;;
62880;SDS011;48969;49.934;8.596;2023-04-06T10:41:03;11.23;;;9.88;;
62880;SDS011;48969;49.934;8.596;2023-04-06T10:43:32;13.18;;;10.02;;
62880;SDS011;48969;49.934;8.596;2023-04-06T10:45:59;12.00;;;9.85;;
62880;SDS011;48969;49.934;8.596;2023-04-06T10:48:25;13.82;;;10.18;;
62880;SDS011;48969;49.934;8.596;2023-04-06T10:50:51;11.38;;;10.13;;
62880;SDS011;48969;49.934;8.596;2023-04-06T10:53:21;12.40;;;9.88;;
62880;SDS011;48969;49.934;8.596;2023-04-06T10:55:46;14.73;;;10.18;;
62880;SDS011;48969;49.934;8.596;2023-04-06T10:58:12;12.55;;;10.20;;
62880;SDS011;48969;49.934;8.596;2023-04-06T11:00:43;12.25;;;10.95;;
62880;SDS011;48969;49.934;8.596;2023-04-06T11:03:08;12.50;;;10.15;;
62880;SDS011;48969;49.934;8.596;2023-04-06T11:05:33;12.57;;;10.35;;
62880;SDS011;48969;49.934;8.596;2023-04-06T11:07:58;11.88;;;10.55;;
62880;SDS011;48969;49.934;8.596;2023-04-06T11:10:23;12.75;;;10.80;;
62880;SDS011;48969;49.934;8.596;2023-04-06T11:12:55;13.07;;;11.07;;
62880;SDS011;48969;49.934;8.596;2023-04-06T11:15:20;12.20;;;10.70;;
62880;SDS011;48969;49.934;8.596;2023-04-06T11:17:45;15.60;;;11.27;;
62880;SDS011;48969;49.934;8.596;2023-04-06T11:20:11;15.88;;;11.93;;
62880;SDS011;48969;49.934;8.596;2023-04-06T11:22:36;12.65;;;11.27;;
62880;SDS011;48969;49.934;8.596;2023-04-06T11:25:04;13.10;;;11.70;;
62880;SDS011;48969;49.934;8.596;2023-04-06T11:27:29;13.73;;;11.45;;
62880;SDS011;48969;49.934;8.596;2023-04-06T11:29:57;14.20;;;12.25;;
62880;SDS011;48969;49.934;8.596;2023-04-06T11:32:22;13.67;;;12.20;;
62880;SDS011;48969;49.934;8.596;2023-04-06T11:34:48;14.20;;;11.18;;
62880;SDS011;48969;49.934;8.596;2023-04-06T11:37:13;13.87;;;10.90;;
62880;SDS011;48969;49.934;8.596;2023-04-06T11:39:40;12.88;;;11.05;;
62880;SDS011;48969;49.934;8.596;2023-04-06T11:42:06;13.48;;;10.80;;
62880;SDS011;48969;49.934;8.596;2023-04-06T11:44:32;12.65;;;10.18;;
62880;SDS011;48969;49.934;8.596;2023-04-06T11:46:57;12.52;;;11.10;;
62880;SDS011;48969;49.934;8.596;2023-04-06T11:49:26;12.88;;;11.27;;
62880;SDS011;48969;49.934;8.596;2023-04-06T11:51:51;13.20;;;11.77;;
62880;SDS011;48969;49.934;8.596;2023-04-06T11:54:16;13.67;;;11.33;;
62880;SDS011;48969;49.934;8.596;2023-04-06T11:56:42;12.87;;;10.50;;
62880;SDS011;48969;49.934;8.596;2023-04-06T11:59:11;13.95;;;11.77;;
62880;SDS011;48969;49.934;8.596;2023-04-06T12:01:44;12.57;;;10.95;;
62880;SDS011;48969;49.934;8.596;2023-04-06T12:04:09;14.02;;;11.20;;
62880;SDS011;48969;49.934;8.596;2023-04-06T12:06:34;12.25;;;10.25;;
62880;SDS011;48969;49.934;8.596;2023-04-06T12:09:00;12.40;;;10.50;;
62880;SDS011;48969;49.934;8.596;2023-04-06T12:11:25;13.25;;;10.82;;
62880;SDS011;48969;49.934;8.596;2023-04-06T12:13:50;13.73;;;10.77;;
62880;SDS011;48969;49.934;8.596;2023-04-06T12:16:15;12.33;;;10.57;;
62880;SDS011;48969;49.934;8.596;2023-04-06T12:18:40;13.73;;;11.50;;
62880;SDS011;48969;49.934;8.596;2023-04-06T12:21:05;13.03;;;11.03;;
62880;SDS011;48969;49.934;8.596;2023-04-06T12:23:31;12.27;;;10.98;;
62880;SDS011;48969;49.934;8.596;2023-04-06T12:25:56;12.57;;;10.77;;
62880;SDS011;48969;49.934;8.596;2023-04-06T12:28:21;14.10;;;10.60;;
62880;SDS011;48969;49.934;8.596;2023-04-06T12:30:48;11.60;;;10.27;;
62880;SDS011;48969;49.934;8.596;2023-04-06T12:33:13;11.73;;;9.43;;
62880;SDS011;48969;49.934;8.596;2023-04-06T12:35:38;13.45;;;10.75;;
62880;SDS011;48969;49.934;8.596;2023-04-06T12:38:03;11.63;;;9.73;;
62880;SDS011;48969;49.934;8.596;2023-04-06T12:40:29;12.10;;;10.00;;
62880;SDS011;48969;49.934;8.596;2023-04-06T12:42:54;12.15;;;9.95;;
62880;SDS011;48969;49.934;8.596;2023-04-06T12:45:19;13.55;;;10.52;;
62880;SDS011;48969;49.934;8.596;2023-04-06T12:47:44;14.27;;;11.23;;
62880;SDS011;48969;49.934;8.596;2023-04-06T12:50:10;13.60;;;10.60;;
62880;SDS011;48969;49.934;8.596;2023-04-06T12:52:35;11.35;;;10.02;;
62880;SDS011;48969;49.934;8.596;2023-04-06T12:55:01;12.52;;;10.45;;
62880;SDS011;48969;49.934;8.596;2023-04-06T12:57:27;11.27;;;9.52;;
62880;SDS011;48969;49.934;8.596;2023-04-06T12:59:52;11.37;;;9.37;;
62880;SDS011;48969;49.934;8.596;2023-04-06T13:02:17;10.95;;;9.10;;
62880;SDS011;48969;49.934;8.596;2023-04-06T13:04:45;11.80;;;10.20;;
62880;SDS011;48969;49.934;8.596;2023-04-06T13:07:10;10.43;;;9.30;;
62880;SDS011;48969;49.934;8.596;2023-04-06T13:09:35;13.23;;;10.00;;
62880;SDS011;48969;49.934;8.596;2023-04-06T13:12:00;11.37;;;10.17;;
62880;SDS011;48969;49.934;8.596;2023-04-06T13:14:26;11.65;;;9.50;;
62880;SDS011;48969;49.934;8.596;2023-04-06T13:16:51;10.25;;;9.02;;
62880;SDS011;48969;49.934;8.596;2023-04-06T13:19:16;12.27;;;9.57;;
62880;SDS011;48969;49.934;8.596;2023-04-06T13:21:43;12.57;;;9.57;;
62880;SDS011;48969;49.934;8.596;2023-04-06T13:24:08;11.68;;;9.27;;
62880;SDS011;48969;49.934;8.596;2023-04-06T13:26:33;12.30;;;10.13;;
62880;SDS011;48969;49.934;8.596;2023-04-06T13:28:59;14.00;;;8.90;;
62880;SDS011;48969;49.934;8.596;2023-04-06T13:31:25;11.25;;;9.10;;
62880;SDS011;48969;49.934;8.596;2023-04-06T13:33:50;10.32;;;9.23;;
62880;SDS011;48969;49.934;8.596;2023-04-06T13:36:15;10.90;;;9.38;;
62880;SDS011;48969;49.934;8.596;2023-04-06T13:38:41;10.57;;;9.27;;
62880;SDS011;48969;49.934;8.596;2023-04-06T13:41:06;13.00;;;9.07;;
62880;SDS011;48969;49.934;8.596;2023-04-06T13:43:31;11.35;;;10.13;;
62880;SDS011;48969;49.934;8.596;2023-04-06T13:45:57;11.87;;;10.20;;
62880;SDS011;48969;49.934;8.596;2023-04-06T13:48:23;11.48;;;9.60;;
62880;SDS011;48969;49.934;8.596;2023-04-06T13:50:49;12.00;;;9.77;;
62880;SDS011;48969;49.934;8.596;2023-04-06T13:53:14;10.65;;;8.95;;
62880;SDS011;48969;49.934;8.596;2023-04-06T13:55:40;11.60;;;9.88;;
62880;SDS011;48969;49.934;8.596;2023-04-06T13:58:06;10.18;;;8.75;;
62880;SDS011;48969;49.934;8.596;2023-04-06T14:00:31;11.07;;;8.70;;
62880;SDS011;48969;49.934;8.596;2023-04-06T14:02:56;10.63;;;9.07;;
62880;SDS011;48969;49.934;8.596;2023-04-06T14:05:21;10.47;;;8.83;;
62880;SDS011;48969;49.934;8.596;2023-04-06T14:07:48;10.52;;;9.10;;
62880;SDS011;48969;49.934;8.596;2023-04-06T14:10:13;10.67;;;9.17;;
62880;SDS011;48969;49.934;8.596;2023-04-06T14:12:42;12.30;;;9.73;;
62880;SDS011;48969;49.934;8.596;2023-04-06T14:15:10;12.02;;;9.70;;
62880;SDS011;48969;49.934;8.596;2023-04-06T14:17:35;11.23;;;9.85;;
62880;SDS011;48969;49.934;8.596;2023-04-06T14:20:01;11.18;;;8.90;;
62880;SDS011;48969;49.934;8.596;2023-04-06T14:22:26;10.93;;;9.50;;
62880;SDS011;48969;49.934;8.596;2023-04-06T14:24:51;10.38;;;9.23;;
62880;SDS011;48969;49.934;8.596;2023-04-06T14:27:16;12.68;;;10.13;;